Time;durP1;ratioP1;P1;durP2;ratioP2;P2;SDS_P1;SDS_P2;PMS_P1;PMS_P2;Temp;Humidity;BMP_temperature;BMP_pressure;BME280_temperature;BME280_humidity;BME280_pressure;Samples;Min_cycle;Max_cycle;Signal;HPM_P1;HPM_P2
2021/05/06 00:31:48;;;;;;;16.58;9.40;;;;;;;14.60;50.89;98707.72;3523892;28;20048;-72
2021/05/06 00:33:24;;;;;;;14.02;8.45;;;;;;;14.62;50.84;98710.97;3523732;28;20414;-72
2021/05/06 00:35:07;;;;;;;15.40;8.55;;;;;;;14.65;50.67;98689.03;3523846;28;20038;-72
2021/05/06 00:36:48;;;;;;;14.95;8.30;;;;;;;14.69;50.42;98697.38;3523018;28;20047;-72
2021/05/06 00:38:33;;;;;;;18.98;8.55;;;;;;;14.67;50.53;98694.97;3520351;28;20498;-72
2021/05/06 00:40:16;;;;;;;12.27;8.38;;;;;;;14.61;50.43;98691.41;3523696;28;20519;-71
2021/05/06 01:02:51;;;;;;;15.07;7.57;;;;;;;14.60;50.12;98678.22;3522828;28;20134;-72
2021/05/06 01:06:21;;;;;;;10.05;7.78;;;;;;;14.58;49.92;98674.97;3520302;28;20128;-71
2021/05/06 01:09:51;;;;;;;14.23;7.78;;;;;;;14.59;49.91;98679.28;3520233;28;20505;-72
2021/05/06 01:11:41;;;;;;;12.80;7.55;;;;;;;14.55;49.93;98676.28;3520561;28;20044;-71
2021/05/06 01:13:26;;;;;;;12.25;7.68;;;;;;;14.56;49.85;98671.72;3523821;28;20071;-71
2021/05/06 01:15:25;;;;;;;12.30;6.85;;;;;;;14.59;49.90;98677.41;3526336;28;20044;-74
2021/05/06 01:17:06;;;;;;;18.38;7.53;;;;;;;14.58;49.99;98677.66;3525038;28;20098;-72
2021/05/06 01:18:48;;;;;;;9.95;6.90;;;;;;;14.60;49.88;98676.34;3526026;28;20490;-71
2021/05/06 01:20:29;;;;;;;9.90;7.43;;;;;;;14.62;49.83;98681.47;3526488;28;20043;-72
2021/05/06 01:22:10;;;;;;;10.27;7.25;;;;;;;14.61;49.75;98666.41;3526062;28;20043;-72
2021/05/06 01:23:52;;;;;;;11.65;7.10;;;;;;;14.67;49.82;98680.75;3526218;28;20040;-71
2021/05/06 01:25:33;;;;;;;13.23;8.35;;;;;;;14.64;49.72;98674.00;3525043;28;20046;-72
2021/05/06 01:27:18;;;;;;;11.02;7.32;;;;;;;14.61;49.75;98669.09;3522159;28;20138;-71
2021/05/06 01:29:03;;;;;;;12.40;6.90;;;;;;;14.61;49.80;98664.56;3523110;28;20043;-71
2021/05/06 01:30:48;;;;;;;10.40;7.50;;;;;;;14.66;49.76;98674.53;3526033;28;20044;-74
2021/05/06 01:32:36;;;;;;;12.10;7.20;;;;;;;14.67;49.57;98668.13;3510818;28;20036;-72
2021/05/06 01:34:20;;;;;;;9.82;6.43;;;;;;;14.68;49.65;98675.13;3521147;28;20096;-73
2021/05/06 01:36:08;;;;;;;12.50;6.95;;;;;;;14.67;49.57;98673.50;3522770;28;20957;-72
2021/05/06 01:38:46;;;;;;;12.95;7.03;;;;;;;14.67;49.52;98672.69;3525893;28;20039;-72
2021/05/06 01:57:59;;;;;;;8.30;4.80;;;;;;;14.63;49.01;98667.00;3524967;28;20044;-73
2021/05/06 01:59:49;;;;;;;10.93;4.90;;;;;;;14.66;49.05;98665.69;3524709;28;20039;-72
2021/05/06 02:01:29;;;;;;;10.82;6.18;;;;;;;14.66;48.82;98658.44;3525410;28;20043;-72
2021/05/06 02:03:11;;;;;;;9.13;5.45;;;;;;;14.66;49.00;98661.13;3524657;28;20165;-72
2021/05/06 02:04:53;;;;;;;7.85;4.82;;;;;;;14.64;48.90;98652.53;3525474;28;20043;-73
2021/05/06 02:06:35;;;;;;;7.97;4.68;;;;;;;14.67;48.85;98657.41;3524015;28;20043;-72
2021/05/06 02:08:31;;;;;;;8.23;4.85;;;;;;;14.66;48.79;98657.66;3523906;28;20071;-76
2021/05/06 02:10:23;;;;;;;8.88;5.35;;;;;;;14.66;48.89;98663.81;3522582;28;20045;-72
2021/05/06 02:12:08;;;;;;;7.07;4.70;;;;;;;14.67;48.77;98665.47;3522301;28;20090;-72
2021/05/06 02:14:00;;;;;;;6.80;4.47;;;;;;;14.67;48.80;98660.09;3525451;28;20043;-71
2021/05/06 02:15:55;;;;;;;5.57;4.90;;;;;;;14.72;48.83;98659.38;3524396;28;20138;-71
2021/05/06 02:17:36;;;;;;;9.50;4.53;;;;;;;14.76;48.53;98655.91;3525308;28;20043;-73
2021/05/06 02:19:26;;;;;;;7.30;5.10;;;;;;;14.79;48.51;98663.50;3524284;28;20036;-72
2021/05/06 02:21:10;;;;;;;5.22;4.68;;;;;;;14.80;48.58;98653.56;3525344;28;20379;-71
2021/05/06 02:22:51;;;;;;;7.68;4.47;;;;;;;14.80;48.63;98659.75;3525178;28;20051;-73
2021/05/06 02:24:34;;;;;;;5.75;4.40;;;;;;;14.85;48.76;98659.00;3525165;28;20088;-72
2021/05/06 02:26:14;;;;;;;8.82;4.35;;;;;;;14.89;48.42;98653.94;3524351;28;20036;-72
2021/05/06 02:27:55;;;;;;;5.85;4.15;;;;;;;14.91;48.55;98657.19;3521553;28;20036;-71
2021/05/06 02:29:36;;;;;;;5.88;3.85;;;;;;;14.91;48.51;98655.31;3525027;28;20113;-72
2021/05/06 02:31:17;;;;;;;4.70;3.78;;;;;;;14.93;48.61;98649.72;3525581;28;20460;-72
2021/05/06 02:32:58;;;;;;;4.38;3.65;;;;;;;14.92;48.44;98658.81;3525318;28;20517;-73
2021/05/06 02:34:38;;;;;;;6.90;3.90;;;;;;;14.91;48.49;98654.50;3523918;28;20043;-72
2021/05/06 02:36:19;;;;;;;7.78;4.15;;;;;;;14.90;48.47;98650.22;3524597;28;20043;-72
2021/05/06 02:38:00;;;;;;;5.78;3.88;;;;;;;14.95;48.49;98658.34;3525085;28;20068;-72
2021/05/06 02:39:44;;;;;;;6.30;4.10;;;;;;;14.96;48.37;98639.28;3525677;28;20036;-72
2021/05/06 02:41:25;;;;;;;11.10;4.35;;;;;;;15.00;48.47;98644.97;3524182;28;20494;-72
2021/05/06 02:43:05;;;;;;;7.57;4.47;;;;;;;15.00;48.43;98640.41;3524859;28;20130;-72
2021/05/06 02:44:46;;;;;;;7.55;3.97;;;;;;;14.98;48.49;98641.72;3525240;28;20043;-73
2021/05/06 02:46:27;;;;;;;3.60;3.30;;;;;;;15.00;48.37;98639.63;3524890;28;20522;-72
2021/05/06 02:48:08;;;;;;;5.18;4.25;;;;;;;15.03;48.50;98644.47;3525050;28;20061;-72
2021/05/06 02:49:50;;;;;;;7.50;4.57;;;;;;;15.07;48.50;98650.16;3524774;28;20390;-71
2021/05/06 02:51:35;;;;;;;5.78;4.00;;;;;;;15.10;48.43;98646.97;3524938;28;20106;-74
2021/05/06 02:53:19;;;;;;;8.32;3.75;;;;;;;15.10;48.41;98645.13;3525063;28;20031;-72
2021/05/06 02:55:25;;;;;;;6.32;4.10;;;;;;;15.12;48.46;98645.66;3525082;28;20039;-71
2021/05/06 03:02:49;;;;;;;5.85;4.55;;;;;;;15.30;48.19;98649.09;3523914;28;20046;-73
2021/05/06 03:04:30;;;;;;;6.68;4.53;;;;;;;15.32;48.17;98652.34;3524660;28;20088;-73
2021/05/06 03:06:24;;;;;;;6.70;4.28;;;;;;;15.33;48.24;98648.56;3524391;28;20046;-72
2021/05/06 03:08:20;;;;;;;5.25;3.75;;;;;;;15.37;48.48;98655.09;3524651;27;20073;-71
2021/05/06 03:10:19;;;;;;;8.35;3.80;;;;;;;15.42;48.16;98647.88;3525021;28;20036;-72
2021/05/06 03:22:40;;;;;;;4.63;3.20;;;;;;;15.80;47.80;98635.44;3525206;28;20130;-72
2021/05/06 03:23:31;;;;;;;5.40;3.80;;;;;;;15.89;47.58;98636.56;3525029;28;20039;-72
2021/05/06 03:25:15;;;;;;;7.65;4.05;;;;;;;15.94;47.51;98638.50;3524949;28;20096;-72
2021/05/06 03:26:56;;;;;;;7.50;3.97;;;;;;;15.92;47.43;98630.69;3524425;28;20046;-72
2021/05/06 03:28:41;;;;;;;6.95;3.63;;;;;;;16.01;47.41;98633.72;3524000;28;20071;-71
2021/05/06 03:41:40;;;;;;;7.80;3.03;;;;;;;16.48;46.95;98646.44;3524335;28;20545;-73
2021/05/06 03:49:41;;;;;;;3.70;2.65;;;;;;;16.53;47.12;98633.03;3526374;28;20035;-72
2021/05/06 04:15:41;;;;;;;5.10;3.10;;;;;;;16.96;46.79;98633.00;3524013;28;20043;-72
2021/05/06 04:17:40;;;;;;;4.70;3.05;;;;;;;17.03;46.64;98630.91;3524297;28;20127;-72
2021/05/06 04:27:07;;;;;;;7.00;3.20;;;;;;;17.16;46.78;98613.44;3523897;28;20036;-71
2021/05/06 04:31:01;;;;;;;5.43;2.92;;;;;;;17.32;46.31;98617.00;3524009;28;20035;-72
2021/05/06 04:38:24;;;;;;;3.55;2.80;;;;;;;17.77;45.88;98610.91;3524156;28;20494;-73
2021/05/06 04:42:01;;;;;;;4.05;2.78;;;;;;;17.98;45.80;98608.25;3522835;28;20035;-73
2021/05/06 04:44:20;;;;;;;3.47;2.55;;;;;;;18.00;45.85;98611.47;3523643;28;20092;-73
2021/05/06 04:53:56;;;;;;;5.03;2.80;;;;;;;18.11;45.68;98596.91;3526431;28;20049;-73
2021/05/06 04:57:47;;;;;;;6.18;2.55;;;;;;;18.24;45.51;98601.75;3526647;28;20031;-72
2021/05/06 05:05:39;;;;;;;5.28;2.83;;;;;;;18.40;45.14;98596.34;3516128;28;20063;-72
2021/05/06 05:07:27;;;;;;;3.90;2.87;;;;;;;18.39;45.34;98590.13;3525500;28;20055;-72
2021/05/06 05:13:13;;;;;;;5.20;3.10;;;;;;;18.34;45.17;98597.44;3526449;28;20047;-73
2021/05/06 05:20:52;;;;;;;7.43;3.25;;;;;;;18.56;45.22;98565.56;3526080;28;20533;-73
2021/05/06 05:24:45;;;;;;;5.05;2.38;;;;;;;18.64;45.03;98570.38;3525145;28;20071;-74
2021/05/06 05:26:26;;;;;;;5.53;3.25;;;;;;;18.73;44.96;98567.91;3526254;28;20048;-73
2021/05/06 05:28:08;;;;;;;6.80;3.17;;;;;;;18.72;45.13;98572.50;3526301;28;20600;-73
2021/05/06 05:29:49;;;;;;;6.82;2.75;;;;;;;18.71;45.05;98570.88;3526081;28;20148;-73
2021/05/06 05:31:30;;;;;;;7.95;3.38;;;;;;;18.73;44.87;98574.13;3525409;28;20031;-73
2021/05/06 05:33:16;;;;;;;4.97;2.92;;;;;;;18.80;45.10;98562.25;3526074;28;20510;-74
2021/05/06 05:36:41;;;;;;;4.97;3.00;;;;;;;18.86;44.78;98561.16;3525967;28;20475;-73
2021/05/06 05:45:44;;;;;;;8.55;2.88;;;;;;;18.95;44.61;98543.31;3525773;28;20120;-73
2021/05/06 05:55:01;;;;;;;3.90;2.45;;;;;;;19.17;44.01;98543.69;3525618;28;20047;-72
2021/05/06 05:56:43;;;;;;;4.55;3.00;;;;;;;19.22;44.55;98542.06;3525591;28;20071;-72
2021/05/06 05:58:25;;;;;;;7.53;3.23;;;;;;;19.25;44.41;98542.31;3525504;27;20414;-72
2021/05/06 06:00:06;;;;;;;;;;;;;;;19.39;44.36;98537.09;3525778;28;20322;-72
2021/05/06 06:01:48;;;;;;;4.15;2.47;;;;;;;19.40;44.48;98536.00;3525028;28;19961;-74
2021/05/06 06:03:28;;;;;;;5.63;3.20;;;;;;;19.43;44.17;98532.72;3525534;28;20043;-73
2021/05/06 06:05:10;;;;;;;5.78;3.00;;;;;;;19.45;44.40;98533.25;3525594;28;20032;-72
2021/05/06 06:06:50;;;;;;;5.88;2.85;;;;;;;19.52;43.97;98524.84;3525234;28;20052;-74
2021/05/06 06:08:32;;;;;;;6.70;2.87;;;;;;;19.61;44.00;98526.66;3525684;28;20559;-73
2021/05/06 06:10:12;;;;;;;6.95;2.95;;;;;;;19.67;43.57;98515.81;3525629;28;20050;-73
2021/05/06 06:11:53;;;;;;;5.25;2.83;;;;;;;19.72;43.68;98521.19;3525583;28;20048;-73
2021/05/06 06:13:34;;;;;;;7.35;3.08;;;;;;;19.81;43.33;98517.59;3525307;28;20047;-72
2021/05/06 06:15:46;;;;;;;3.95;2.78;;;;;;;19.87;43.51;98521.06;3525289;27;20095;-72
2021/05/06 06:17:30;;;;;;;7.38;2.88;;;;;;;19.82;43.46;98510.28;3525109;28;20050;-73
2021/05/06 06:19:11;;;;;;;5.40;2.95;;;;;;;19.74;43.32;98508.19;3525658;28;20120;-73
2021/05/06 06:21:05;;;;;;;3.60;3.03;;;;;;;19.77;43.39;98499.53;3525567;28;20055;-74
2021/05/06 06:22:45;;;;;;;7.90;3.25;;;;;;;19.75;43.10;98499.03;3524462;28;20047;-72
2021/05/06 06:24:26;;;;;;;3.73;3.00;;;;;;;19.76;43.28;98503.31;3525387;28;20082;-73
2021/05/06 06:26:07;;;;;;;5.03;2.77;;;;;;;19.81;43.35;98495.16;3525126;28;20104;-72
2021/05/06 06:27:48;;;;;;;4.82;3.40;;;;;;;19.94;43.06;98504.50;3525287;28;20478;-72
2021/05/06 06:29:31;;;;;;;6.73;3.40;;;;;;;20.15;43.03;98499.69;3525420;28;20054;-73
2021/05/06 06:32:54;;;;;;;7.35;3.03;;;;;;;20.51;42.32;98499.31;3525283;28;20038;-72
2021/05/06 06:34:35;;;;;;;6.63;3.58;;;;;;;20.56;42.28;98500.09;3524974;28;20043;-73
2021/05/06 06:36:17;;;;;;;4.10;2.83;;;;;;;20.60;41.87;98484.06;3525026;28;20066;-74
2021/05/06 06:37:58;;;;;;;10.48;3.20;;;;;;;20.68;42.09;98488.84;3524122;28;20039;-71
2021/05/06 06:39:43;;;;;;;3.72;2.75;;;;;;;20.76;41.67;98479.28;3524825;28;20138;-73
2021/05/06 06:41:23;;;;;;;11.02;3.53;;;;;;;20.74;41.70;98484.16;3525278;28;20490;-72
2021/05/06 06:43:04;;;;;;;5.40;3.10;;;;;;;20.81;41.90;98480.00;3523463;28;20159;-72
2021/05/06 06:44:45;;;;;;;9.27;3.30;;;;;;;20.90;41.83;98472.03;3521163;28;20037;-73
2021/05/06 06:46:26;;;;;;;7.73;3.40;;;;;;;21.10;41.48;98471.72;3524783;28;20623;-72
2021/05/06 06:48:07;;;;;;;3.35;2.80;;;;;;;21.25;41.37;98465.28;3525081;28;20277;-73
2021/05/06 06:49:48;;;;;;;7.32;3.22;;;;;;;21.34;40.88;98476.25;3525353;28;20043;-74
2021/05/06 06:51:28;;;;;;;5.87;3.03;;;;;;;21.41;40.89;98473.22;3525277;27;20084;-75
2021/05/06 06:53:12;;;;;;;4.93;3.67;;;;;;;21.45;40.79;98471.50;3525089;28;20468;-73
2021/05/06 06:54:53;;;;;;;9.70;3.65;;;;;;;21.46;40.51;98454.16;3525163;28;20075;-74
2021/05/06 06:56:34;;;;;;;5.97;3.17;;;;;;;21.43;40.47;98460.16;3524804;28;20070;-73
2021/05/06 06:58:16;;;;;;;6.37;3.43;;;;;;;21.44;40.91;98449.00;3525062;28;20086;-72
2021/05/06 06:59:56;;;;;;;4.68;2.85;;;;;;;21.55;40.93;98452.34;3523912;28;20043;-73
2021/05/06 07:01:39;;;;;;;5.78;2.95;;;;;;;21.70;40.43;98451.28;3524453;28;20047;-73
2021/05/06 07:03:20;;;;;;;4.87;2.43;;;;;;;21.81;40.55;98455.41;3523995;28;20135;-74
2021/05/06 07:05:01;;;;;;;7.00;2.67;;;;;;;21.83;39.95;98450.50;3524785;28;20039;-73
2021/05/06 07:06:41;;;;;;;3.93;2.30;;;;;;;21.83;40.16;98449.72;3522674;28;20052;-73
2021/05/06 07:08:29;;;;;;;4.70;2.25;;;;;;;21.86;39.92;98444.47;3521217;28;20050;-74
2021/05/06 07:10:10;;;;;;;6.05;2.50;;;;;;;21.88;39.76;98458.56;3521708;28;20533;-74
2021/05/06 07:11:51;;;;;;;4.90;2.75;;;;;;;21.90;39.80;98444.72;3523799;28;20042;-73
2021/05/06 07:13:32;;;;;;;6.93;2.63;;;;;;;21.95;39.80;98458.19;3524587;28;20048;-72
2021/05/06 07:15:13;;;;;;;3.30;2.20;;;;;;;21.93;39.44;98452.25;3523597;28;20035;-71
2021/05/06 07:16:55;;;;;;;5.00;2.33;;;;;;;21.90;39.47;98450.13;3524645;28;20048;-73
2021/05/06 07:18:36;;;;;;;7.05;3.50;;;;;;;22.03;39.42;98453.97;3523249;28;20278;-73
2021/05/06 07:20:16;;;;;;;8.23;2.67;;;;;;;22.25;39.29;98456.00;3520783;28;20130;-73
2021/05/06 07:21:57;;;;;;;7.77;2.57;;;;;;;22.43;38.89;98452.38;3492815;28;20044;-74
2021/05/06 07:23:38;;;;;;;5.73;2.27;;;;;;;22.55;38.72;98439.09;3518741;28;20032;-72
2021/05/06 07:25:19;;;;;;;4.20;2.67;;;;;;;22.64;38.51;98441.91;3524748;28;20398;-72
2021/05/06 07:27:00;;;;;;;5.03;2.50;;;;;;;22.76;38.63;98444.09;3524658;28;20047;-73
2021/05/06 07:28:42;;;;;;;5.20;2.28;;;;;;;22.79;38.30;98443.47;3524363;28;20043;-74
2021/05/06 07:30:23;;;;;;;6.15;2.22;;;;;;;22.76;38.44;98433.22;3523641;28;20138;-74
2021/05/06 07:32:05;;;;;;;4.60;2.20;;;;;;;22.81;38.37;98441.25;3524160;28;20044;-73
2021/05/06 07:33:47;;;;;;;4.07;2.45;;;;;;;22.83;38.04;98433.59;3524705;28;20055;-74
2021/05/06 07:35:28;;;;;;;4.20;2.50;;;;;;;22.90;38.27;98433.16;3523294;28;20035;-73
2021/05/06 07:37:09;;;;;;;5.82;2.30;;;;;;;22.96;38.27;98440.91;3520386;28;20502;-72
2021/05/06 07:38:50;;;;;;;5.00;2.27;;;;;;;23.07;38.00;98453.16;3524112;28;20268;-73
2021/05/06 07:40:32;;;;;;;8.93;2.50;;;;;;;23.26;37.74;98430.47;3524575;28;20118;-73
2021/05/06 07:42:13;;;;;;;3.63;2.05;;;;;;;23.36;37.21;98419.31;3523617;28;20521;-73
2021/05/06 07:43:53;;;;;;;5.63;2.30;;;;;;;23.49;37.21;98425.81;3524170;28;20099;-73
2021/05/06 07:45:34;;;;;;;7.70;2.30;;;;;;;23.63;36.85;98423.81;3524207;28;20058;-71
2021/05/06 07:47:15;;;;;;;5.43;2.10;;;;;;;23.73;36.71;98418.13;3524113;28;20046;-72
2021/05/06 07:48:56;;;;;;;11.50;2.27;;;;;;;23.91;36.61;98408.13;3524214;28;20494;-74
2021/05/06 07:50:36;;;;;;;6.57;1.97;;;;;;;24.14;36.67;98413.50;3524099;28;20288;-72
2021/05/06 07:52:19;;;;;;;6.47;2.40;;;;;;;24.47;36.17;98421.31;3523323;28;20039;-72
2021/05/06 07:54:06;;;;;;;6.00;2.50;;;;;;;24.84;35.88;98406.28;3520793;28;20394;-72
2021/05/06 07:55:47;;;;;;;4.82;2.40;;;;;;;25.01;35.33;98427.28;3523652;28;20043;-73
2021/05/06 07:57:28;;;;;;;7.67;2.27;;;;;;;25.04;35.26;98399.38;3523134;28;20070;-72
2021/05/06 07:59:09;;;;;;;6.67;2.70;;;;;;;25.15;35.36;98408.84;3523980;28;20304;-72
2021/05/06 08:00:49;;;;;;;7.63;2.47;;;;;;;25.28;35.29;98414.50;3523359;28;20043;-72
2021/05/06 08:02:30;;;;;;;4.00;2.27;;;;;;;25.41;34.94;98416.22;3524331;28;20077;-72
2021/05/06 08:04:11;;;;;;;4.50;2.30;;;;;;;25.41;34.74;98413.50;3524105;28;20070;-73
2021/05/06 08:05:56;;;;;;;3.87;2.47;;;;;;;25.45;34.77;98398.06;3524116;28;20063;-71
2021/05/06 08:07:37;;;;;;;5.55;2.33;;;;;;;25.52;34.68;98403.03;3523706;28;20564;-73
2021/05/06 08:09:18;;;;;;;2.77;2.43;;;;;;;25.63;34.46;98413.25;3524333;28;20043;-72
2021/05/06 08:10:59;;;;;;;5.33;2.40;;;;;;;25.75;34.42;98401.69;3524217;28;20100;-73
2021/05/06 08:12:40;;;;;;;5.47;2.10;;;;;;;25.81;34.25;98403.09;3522890;28;20059;-73
2021/05/06 08:14:20;;;;;;;7.17;2.27;;;;;;;25.89;34.23;98396.03;3523539;28;20036;-73
2021/05/06 08:16:01;;;;;;;8.60;2.70;;;;;;;25.90;34.33;98397.66;3523923;28;20498;-74
2021/05/06 08:17:42;;;;;;;4.33;1.97;;;;;;;25.96;34.35;98401.00;3523960;28;20602;-72
2021/05/06 08:19:23;;;;;;;6.57;2.13;;;;;;;25.96;34.23;98418.16;3522681;28;20042;-73
2021/05/06 08:21:04;;;;;;;5.37;2.60;;;;;;;25.93;34.12;98412.56;3523757;28;20139;-73
2021/05/06 08:22:45;;;;;;;6.43;2.83;;;;;;;25.87;34.04;98401.84;3524614;28;20447;-72
2021/05/06 08:24:26;;;;;;;6.85;2.63;;;;;;;25.89;33.93;98406.94;3527068;28;20043;-73
2021/05/06 08:26:06;;;;;;;6.00;1.77;;;;;;;25.76;34.02;98414.19;3526778;28;20046;-71
2021/05/06 08:27:47;;;;;;;22.97;3.83;;;;;;;25.43;34.54;98401.13;3526975;28;20047;-72
2021/05/06 08:29:28;;;;;;;6.60;2.70;;;;;;;25.23;34.59;98394.44;3526782;27;20523;-73
2021/05/06 08:31:09;;;;;;;4.13;1.97;;;;;;;25.22;34.85;98401.03;3526779;28;20043;-72
2021/05/06 08:32:49;;;;;;;2.00;1.80;;;;;;;25.10;35.10;98402.75;3526810;28;20039;-72
2021/05/06 08:34:30;;;;;;;3.43;2.13;;;;;;;24.97;35.07;98407.25;3525796;28;20553;-72
2021/05/06 08:36:11;;;;;;;4.30;2.17;;;;;;;24.96;35.06;98419.28;3525997;28;20036;-73
2021/05/06 08:37:51;;;;;;;7.60;2.70;;;;;;;24.81;34.96;98402.28;3525863;28;20062;-72
2021/05/06 08:39:32;;;;;;;8.93;2.53;;;;;;;24.58;35.50;98433.53;3522609;28;20594;-73
2021/05/06 08:41:13;;;;;;;6.80;2.07;;;;;;;24.38;35.52;98432.94;3522933;28;20421;-74
2021/05/06 08:42:55;;;;;;;9.18;2.40;;;;;;;24.07;35.87;98415.88;3523049;28;20035;-72
2021/05/06 08:44:37;;;;;;;9.02;2.15;;;;;;;23.68;36.29;98401.13;3508689;28;20039;-73
2021/05/06 08:46:17;;;;;;;;;;;;;;;23.57;36.75;98421.53;3521102;28;20045;-72
2021/05/06 08:47:58;;;;;;;6.22;2.33;;;;;;;23.20;37.10;98453.44;3522759;28;19919;-72
2021/05/06 08:49:40;;;;;;;6.83;2.10;;;;;;;22.94;37.25;98426.81;3526160;28;20066;-71
2021/05/06 08:51:21;;;;;;;7.25;2.00;;;;;;;22.60;37.78;98416.47;3526569;28;20289;-72
2021/05/06 08:53:06;;;;;;;4.00;1.95;;;;;;;22.45;38.18;98430.34;3525371;28;20048;-72
2021/05/06 08:54:48;;;;;;;3.63;2.08;;;;;;;22.43;38.15;98445.06;3523337;28;20062;-72
2021/05/06 08:56:29;;;;;;;6.43;2.38;;;;;;;22.39;38.34;98405.22;3525909;28;20571;-73
2021/05/06 08:58:09;;;;;;;5.67;2.33;;;;;;;22.43;38.16;98408.94;3526350;28;20134;-72
2021/05/06 08:59:51;;;;;;;6.13;2.67;;;;;;;22.38;38.45;98409.03;3526554;28;20081;-74
2021/05/06 09:01:32;;;;;;;;;;;;;;;22.49;38.38;98428.66;3525671;28;20062;-73
2021/05/06 09:03:16;;;;;;;3.30;1.90;;;;;;;22.19;38.74;98430.88;3526301;28;19919;-74
2021/05/06 09:05:04;;;;;;;6.15;2.67;;;;;;;22.12;39.07;98436.69;3525625;28;20043;-72
2021/05/06 09:06:55;;;;;;;2.70;1.70;;;;;;;22.06;38.84;98427.03;3525782;28;20530;-73
2021/05/06 09:08:37;;;;;;;4.45;2.65;;;;;;;21.93;38.92;98434.03;3526063;28;20143;-72
2021/05/06 09:10:37;;;;;;;6.97;1.92;;;;;;;21.83;38.95;98434.22;3526257;28;20043;-73
2021/05/06 09:12:37;;;;;;;3.30;2.15;;;;;;;21.58;39.84;98448.25;3526368;28;20035;-74
2021/05/06 09:14:18;;;;;;;8.27;2.30;;;;;;;21.40;40.41;98521.19;3511377;28;20042;-74
2021/05/06 09:16:00;;;;;;;7.80;2.47;;;;;;;21.21;40.83;98487.84;3519792;28;20047;-74
2021/05/06 09:17:40;;;;;;;5.72;2.15;;;;;;;21.03;41.40;98465.06;3526049;28;20044;-72
2021/05/06 09:19:26;;;;;;;4.03;2.23;;;;;;;20.97;41.53;98463.53;3524706;28;20611;-73
2021/05/06 09:21:10;;;;;;;3.80;2.10;;;;;;;20.92;41.52;98481.47;3526090;28;20088;-74
2021/05/06 09:22:56;;;;;;;7.78;2.22;;;;;;;20.96;41.71;98480.88;3526185;28;20050;-72
2021/05/06 09:24:37;;;;;;;5.65;2.30;;;;;;;20.91;42.33;98520.50;3526232;28;20043;-74
2021/05/06 09:26:28;;;;;;;7.13;2.50;;;;;;;20.85;42.08;98491.06;3525233;28;20051;-73
2021/05/06 09:28:13;;;;;;;5.85;2.15;;;;;;;20.72;42.79;98503.41;3526037;28;20044;-72
2021/05/06 09:29:54;;;;;;;4.43;2.10;;;;;;;20.66;42.70;98507.28;3526354;28;20047;-74
2021/05/06 09:31:40;;;;;;;6.03;2.40;;;;;;;20.64;42.75;98502.16;3525917;28;20040;-72
2021/05/06 09:33:34;;;;;;;5.78;2.38;;;;;;;20.61;42.90;98513.56;3526049;28;20045;-73
2021/05/06 09:35:18;;;;;;;3.50;2.08;;;;;;;20.55;43.04;98497.66;3523884;28;20032;-72
2021/05/06 09:37:01;;;;;;;3.88;2.33;;;;;;;20.48;43.47;98525.84;3525823;28;20047;-74
2021/05/06 09:38:44;;;;;;;9.18;2.53;;;;;;;20.29;44.57;98527.72;3526020;28;20044;-75
2021/05/06 09:40:25;;;;;;;5.50;2.17;;;;;;;20.20;45.21;98524.00;3526356;28;20043;-73
2021/05/06 09:42:11;;;;;;;5.33;2.10;;;;;;;20.16;45.48;98522.94;3525786;28;20078;-74
2021/05/06 09:43:53;;;;;;;2.67;2.17;;;;;;;20.14;46.01;98530.56;3525884;28;20039;-72
2021/05/06 09:45:33;;;;;;;2.75;2.03;;;;;;;20.12;46.11;98521.94;3525859;27;20130;-74
2021/05/06 09:47:15;;;;;;;2.47;2.00;;;;;;;20.07;46.68;98533.59;3525735;28;20047;-72
2021/05/06 09:49:07;;;;;;;4.60;2.30;;;;;;;19.96;47.62;98532.88;3525965;27;20177;-76
2021/05/06 09:50:57;;;;;;;3.72;2.00;;;;;;;19.84;47.92;98529.75;3526220;28;20047;-73
2021/05/06 09:52:54;;;;;;;4.60;2.22;;;;;;;19.77;47.68;98524.69;3526209;28;20043;-74
2021/05/06 09:54:45;;;;;;;2.60;2.40;;;;;;;19.72;48.36;98523.91;3510708;28;20040;-73
2021/05/06 09:56:26;;;;;;;2.97;2.58;;;;;;;19.69;47.98;98513.66;3523469;28;20039;-73
2021/05/06 09:58:24;;;;;;;5.22;2.47;;;;;;;19.70;48.08;98510.69;3525708;28;20169;-73
2021/05/06 10:00:17;;;;;;;2.45;2.20;;;;;;;19.65;48.18;98507.19;3525624;28;20413;-72
2021/05/06 10:02:14;;;;;;;2.60;2.30;;;;;;;19.62;47.87;98513.97;3525704;28;20042;-72
2021/05/06 10:03:55;;;;;;;4.93;2.70;;;;;;;19.60;48.12;98499.91;3525758;28;20040;-73
2021/05/06 10:05:37;;;;;;;4.20;2.23;;;;;;;19.62;47.99;98503.16;3524524;28;20053;-74
2021/05/06 10:07:22;;;;;;;;;;;;;;;19.80;47.08;98496.25;3507844;28;20543;-73
2021/05/06 10:09:03;;;;;;;2.45;2.25;;;;;;;19.77;47.28;98489.53;3522931;28;19920;-72
2021/05/06 10:10:46;;;;;;;4.63;2.05;;;;;;;19.78;47.49;98482.22;3525579;28;20051;-74
2021/05/06 10:12:35;;;;;;;6.57;1.97;;;;;;;19.78;47.63;98493.84;3525580;28;20048;-72
2021/05/06 10:14:16;;;;;;;2.97;2.67;;;;;;;19.76;47.50;98487.09;3525458;28;20039;-72
2021/05/06 10:15:56;;;;;;;6.63;2.23;;;;;;;19.75;47.38;98489.00;3524052;28;20041;-72
2021/05/06 10:17:37;;;;;;;7.83;3.03;;;;;;;19.78;47.26;98487.63;3525182;28;20058;-73
2021/05/06 10:19:18;;;;;;;6.32;3.08;;;;;;;19.85;47.04;98489.97;3524369;28;20134;-72
2021/05/06 10:20:59;;;;;;;2.45;2.10;;;;;;;19.96;47.05;98502.34;3525169;28;20043;-72
2021/05/06 10:22:42;;;;;;;3.70;2.15;;;;;;;20.11;46.41;98509.47;3525145;28;20063;-72
2021/05/06 10:24:23;;;;;;;5.70;2.20;;;;;;;20.27;46.14;98544.22;3524392;28;20035;-73
2021/05/06 10:26:04;;;;;;;4.43;2.33;;;;;;;20.37;46.24;98502.72;3524934;28;20035;-72
2021/05/06 10:27:49;;;;;;;4.07;3.28;;;;;;;20.44;45.54;98511.28;3525000;28;20044;-73
2021/05/06 10:29:32;;;;;;;5.32;2.55;;;;;;;20.40;45.67;98520.28;3525048;28;20126;-72
2021/05/06 10:31:14;;;;;;;4.22;2.47;;;;;;;20.38;45.64;98520.56;3524064;28;20119;-73
2021/05/06 10:32:55;;;;;;;4.28;2.40;;;;;;;20.38;45.97;98525.97;3524960;28;20444;-72
2021/05/06 10:34:36;;;;;;;9.30;3.00;;;;;;;20.34;45.91;98514.13;3525255;28;20039;-73
2021/05/06 10:36:17;;;;;;;4.95;2.42;;;;;;;20.33;45.89;98517.09;3522758;28;20043;-72
2021/05/06 10:37:59;;;;;;;3.23;1.97;;;;;;;20.36;45.70;98536.25;3524891;28;20132;-73
2021/05/06 10:39:40;;;;;;;;;;;;;;;20.46;45.31;98533.44;3524192;28;20502;-71
2021/05/06 10:41:25;;;;;;;4.03;2.10;;;;;;;20.34;45.35;98535.78;3524721;28;19916;-72
2021/05/06 10:43:27;;;;;;;6.90;2.10;;;;;;;20.32;45.48;98535.25;3524820;28;20521;-73
2021/05/06 10:45:13;;;;;;;6.20;2.10;;;;;;;20.33;45.59;98544.97;3524925;28;20549;-74
2021/05/06 10:47:02;;;;;;;7.93;2.65;;;;;;;20.27;45.86;98538.00;3523453;28;20050;-72
2021/05/06 10:48:57;;;;;;;2.55;2.00;;;;;;;20.23;46.43;98561.31;3524760;28;20036;-73
2021/05/06 10:50:40;;;;;;;1.92;1.65;;;;;;;20.18;47.22;98559.44;3524965;28;20156;-73
2021/05/06 10:52:36;;;;;;;2.42;2.05;;;;;;;20.15;47.11;98557.31;3524907;27;20088;-74
2021/05/06 10:54:27;;;;;;;2.30;2.00;;;;;;;20.03;47.63;98579.34;3524954;28;20100;-74
2021/05/06 10:56:17;;;;;;;9.52;2.30;;;;;;;19.79;47.94;98564.94;3524700;28;20069;-74
2021/05/06 10:57:57;;;;;;;1.75;1.65;;;;;;;19.57;48.11;98568.06;3525075;28;20051;-72
2021/05/06 10:59:42;;;;;;;2.47;1.97;;;;;;;19.39;48.61;98564.13;3523825;28;20047;-73
2021/05/06 11:01:23;;;;;;;2.85;2.13;;;;;;;19.10;48.94;98574.81;3524673;28;20101;-72
2021/05/06 11:03:06;;;;;;;3.30;2.17;;;;;;;18.93;49.37;98580.56;3524155;27;20039;-72
2021/05/06 11:04:47;;;;;;;2.20;2.00;;;;;;;18.76;49.76;98545.78;3524756;28;20165;-72
2021/05/06 11:06:38;;;;;;;2.53;2.00;;;;;;;18.83;50.10;98549.00;3523186;28;20036;-73
2021/05/06 11:08:22;;;;;;;2.20;2.00;;;;;;;18.81;50.03;98547.66;3522579;28;20082;-72
2021/05/06 11:10:04;;;;;;;3.22;2.00;;;;;;;18.79;50.03;98549.84;3524515;28;20056;-73
2021/05/06 11:12:17;;;;;;;3.08;1.90;;;;;;;18.87;49.50;98543.84;3524614;28;20063;-73
2021/05/06 11:14:07;;;;;;;3.17;1.98;;;;;;;18.79;49.82;98537.13;3524721;28;20092;-73
2021/05/06 11:15:50;;;;;;;2.60;2.40;;;;;;;18.70;49.98;98542.28;3524938;28;20481;-72
2021/05/06 11:17:40;;;;;;;3.75;2.08;;;;;;;18.67;50.14;98537.44;3524549;28;20072;-72
2021/05/06 11:19:39;;;;;;;4.25;1.88;;;;;;;18.68;49.84;98524.75;3524562;28;20114;-73
2021/05/06 11:21:33;;;;;;;4.22;1.98;;;;;;;18.80;49.60;98532.56;3509519;28;20504;-73
2021/05/06 11:23:20;;;;;;;3.03;1.63;;;;;;;18.84;49.37;98530.91;3523039;28;20043;-74
2021/05/06 11:25:00;;;;;;;2.63;1.70;;;;;;;18.79;49.03;98529.03;3524640;28;20112;-72